sensor_id;sensor_type;location;lat;lon;timestamp;P1;durP1;ratioP1;P2;durP2;ratioP2
50319;SDS011;36226;53.464;9.852;2023-11-19T00:00:18;1.88;;;1.30;;
50319;SDS011;36226;53.464;9.852;2023-11-19T00:02:44;2.42;;;1.20;;
50319;SDS011;36226;53.464;9.852;2023-11-19T00:05:10;1.88;;;1.17;;
50319;SDS011;36226;53.464;9.852;2023-11-19T00:07:36;2.25;;;1.45;;
50319;SDS011;36226;53.464;9.852;2023-11-19T00:10:06;1.67;;;1.35;;
50319;SDS011;36226;53.464;9.852;2023-11-19T00:12:34;2.45;;;1.45;;
50319;SDS011;36226;53.464;9.852;2023-11-19T00:15:00;2.20;;;1.20;;
50319;SDS011;36226;53.464;9.852;2023-11-19T00:17:25;2.10;;;1.30;;
50319;SDS011;36226;53.464;9.852;2023-11-19T00:19:52;1.48;;;1.05;;
50319;SDS011;36226;53.464;9.852;2023-11-19T00:22:17;2.70;;;1.20;;
50319;SDS011;36226;53.464;9.852;2023-11-19T00:24:42;1.33;;;1.02;;
50319;SDS011;36226;53.464;9.852;2023-11-19T00:27:08;1.27;;;1.08;;
50319;SDS011;36226;53.464;9.852;2023-11-19T00:29:33;2.42;;;1.25;;
50319;SDS011;36226;53.464;9.852;2023-11-19T00:31:58;1.88;;;1.20;;
50319;SDS011;36226;53.464;9.852;2023-11-19T00:34:24;1.98;;;1.13;;
50319;SDS011;36226;53.464;9.852;2023-11-19T00:36:49;1.70;;;0.88;;
50319;SDS011;36226;53.464;9.852;2023-11-19T00:39:15;1.58;;;1.00;;
50319;SDS011;36226;53.464;9.852;2023-11-19T00:41:40;1.38;;;1.10;;
50319;SDS011;36226;53.464;9.852;2023-11-19T00:44:06;1.42;;;1.10;;
50319;SDS011;36226;53.464;9.852;2023-11-19T00:46:31;1.38;;;0.90;;
50319;SDS011;36226;53.464;9.852;2023-11-19T00:48:57;1.50;;;1.00;;
50319;SDS011;36226;53.464;9.852;2023-11-19T00:51:24;1.02;;;0.80;;
50319;SDS011;36226;53.464;9.852;2023-11-19T00:53:51;1.10;;;0.80;;
50319;SDS011;36226;53.464;9.852;2023-11-19T00:56:17;1.23;;;0.80;;
50319;SDS011;36226;53.464;9.852;2023-11-19T00:58:44;1.55;;;1.00;;
50319;SDS011;36226;53.464;9.852;2023-11-19T01:01:11;1.55;;;1.08;;
50319;SDS011;36226;53.464;9.852;2023-11-19T01:03:37;3.22;;;1.02;;
50319;SDS011;36226;53.464;9.852;2023-11-19T01:06:02;2.42;;;1.00;;
50319;SDS011;36226;53.464;9.852;2023-11-19T01:08:28;2.53;;;0.90;;
50319;SDS011;36226;53.464;9.852;2023-11-19T01:10:54;2.97;;;0.90;;
50319;SDS011;36226;53.464;9.852;2023-11-19T01:13:19;1.15;;;0.77;;
50319;SDS011;36226;53.464;9.852;2023-11-19T01:15:44;1.38;;;0.90;;
50319;SDS011;36226;53.464;9.852;2023-11-19T01:18:10;1.65;;;0.95;;
50319;SDS011;36226;53.464;9.852;2023-11-19T01:20:36;1.38;;;0.80;;
50319;SDS011;36226;53.464;9.852;2023-11-19T01:23:01;1.25;;;0.70;;
50319;SDS011;36226;53.464;9.852;2023-11-19T01:25:27;1.08;;;0.75;;
50319;SDS011;36226;53.464;9.852;2023-11-19T01:27:52;0.93;;;0.50;;
50319;SDS011;36226;53.464;9.852;2023-11-19T01:30:17;0.57;;;0.57;;
50319;SDS011;36226;53.464;9.852;2023-11-19T01:32:44;1.70;;;0.70;;
50319;SDS011;36226;53.464;9.852;2023-11-19T01:35:10;1.45;;;0.70;;
50319;SDS011;36226;53.464;9.852;2023-11-19T01:37:35;0.75;;;0.60;;
50319;SDS011;36226;53.464;9.852;2023-11-19T01:40:01;1.55;;;0.50;;
50319;SDS011;36226;53.464;9.852;2023-11-19T01:42:27;0.73;;;0.45;;
50319;SDS011;36226;53.464;9.852;2023-11-19T01:44:59;0.57;;;0.30;;
50319;SDS011;36226;53.464;9.852;2023-11-19T01:47:25;0.73;;;0.40;;
50319;SDS011;36226;53.464;9.852;2023-11-19T01:49:55;0.47;;;0.30;;
50319;SDS011;36226;53.464;9.852;2023-11-19T01:52:21;0.65;;;0.30;;
50319;SDS011;36226;53.464;9.852;2023-11-19T01:54:47;0.40;;;0.30;;
50319;SDS011;36226;53.464;9.852;2023-11-19T01:57:13;1.27;;;0.28;;
50319;SDS011;36226;53.464;9.852;2023-11-19T01:59:39;1.55;;;0.47;;
50319;SDS011;36226;53.464;9.852;2023-11-19T02:02:05;1.88;;;0.30;;
50319;SDS011;36226;53.464;9.852;2023-11-19T02:04:31;1.50;;;0.40;;
50319;SDS011;36226;53.464;9.852;2023-11-19T02:06:57;0.35;;;0.35;;
50319;SDS011;36226;53.464;9.852;2023-11-19T02:09:23;0.38;;;0.30;;
50319;SDS011;36226;53.464;9.852;2023-11-19T02:11:48;1.63;;;0.30;;
50319;SDS011;36226;53.464;9.852;2023-11-19T02:14:16;0.30;;;0.20;;
50319;SDS011;36226;53.464;9.852;2023-11-19T02:16:42;0.40;;;0.40;;
50319;SDS011;36226;53.464;9.852;2023-11-19T02:19:07;1.15;;;0.40;;
50319;SDS011;36226;53.464;9.852;2023-11-19T02:21:35;0.95;;;0.30;;
50319;SDS011;36226;53.464;9.852;2023-11-19T02:24:02;0.73;;;0.30;;
50319;SDS011;36226;53.464;9.852;2023-11-19T02:26:56;0.93;;;0.45;;
50319;SDS011;36226;53.464;9.852;2023-11-19T02:29:23;0.60;;;0.30;;
50319;SDS011;36226;53.464;9.852;2023-11-19T02:31:48;0.35;;;0.35;;
50319;SDS011;36226;53.464;9.852;2023-11-19T02:34:14;1.27;;;0.40;;
50319;SDS011;36226;53.464;9.852;2023-11-19T02:36:39;0.93;;;0.40;;
50319;SDS011;36226;53.464;9.852;2023-11-19T02:39:06;0.90;;;0.50;;
50319;SDS011;36226;53.464;9.852;2023-11-19T02:41:36;1.38;;;0.90;;
50319;SDS011;36226;53.464;9.852;2023-11-19T02:44:01;0.80;;;0.60;;
50319;SDS011;36226;53.464;9.852;2023-11-19T02:46:26;0.45;;;0.40;;
50319;SDS011;36226;53.464;9.852;2023-11-19T02:48:52;0.95;;;0.60;;
50319;SDS011;36226;53.464;9.852;2023-11-19T02:51:17;0.63;;;0.60;;
50319;SDS011;36226;53.464;9.852;2023-11-19T02:53:43;1.08;;;0.68;;
50319;SDS011;36226;53.464;9.852;2023-11-19T02:56:09;0.90;;;0.60;;
50319;SDS011;36226;53.464;9.852;2023-11-19T02:58:45;0.98;;;0.77;;
50319;SDS011;36226;53.464;9.852;2023-11-19T03:01:11;1.05;;;0.70;;
50319;SDS011;36226;53.464;9.852;2023-11-19T03:03:48;1.02;;;0.90;;
50319;SDS011;36226;53.464;9.852;2023-11-19T03:06:19;0.98;;;0.88;;
50319;SDS011;36226;53.464;9.852;2023-11-19T03:08:44;0.90;;;0.77;;
50319;SDS011;36226;53.464;9.852;2023-11-19T03:11:09;1.05;;;0.93;;
50319;SDS011;36226;53.464;9.852;2023-11-19T03:13:35;3.47;;;0.80;;
50319;SDS011;36226;53.464;9.852;2023-11-19T03:16:00;1.15;;;1.00;;
50319;SDS011;36226;53.464;9.852;2023-11-19T03:18:25;1.20;;;1.00;;
50319;SDS011;36226;53.464;9.852;2023-11-19T03:20:52;2.00;;;1.50;;
50319;SDS011;36226;53.464;9.852;2023-11-19T03:23:17;3.05;;;1.40;;
50319;SDS011;36226;53.464;9.852;2023-11-19T03:25:42;1.58;;;1.13;;
50319;SDS011;36226;53.464;9.852;2023-11-19T03:28:08;2.33;;;1.42;;
50319;SDS011;36226;53.464;9.852;2023-11-19T03:30:34;1.88;;;1.67;;
50319;SDS011;36226;53.464;9.852;2023-11-19T03:32:59;3.20;;;2.03;;
50319;SDS011;36226;53.464;9.852;2023-11-19T03:35:26;5.47;;;1.92;;
50319;SDS011;36226;53.464;9.852;2023-11-19T03:37:52;4.03;;;2.60;;
50319;SDS011;36226;53.464;9.852;2023-11-19T03:40:18;4.57;;;2.42;;
50319;SDS011;36226;53.464;9.852;2023-11-19T03:42:46;4.80;;;2.33;;
50319;SDS011;36226;53.464;9.852;2023-11-19T03:45:12;6.78;;;3.10;;
50319;SDS011;36226;53.464;9.852;2023-11-19T03:47:37;8.85;;;3.92;;
50319;SDS011;36226;53.464;9.852;2023-11-19T03:50:03;8.32;;;4.63;;
50319;SDS011;36226;53.464;9.852;2023-11-19T03:52:29;9.05;;;4.72;;
50319;SDS011;36226;53.464;9.852;2023-11-19T03:54:55;7.18;;;4.45;;
50319;SDS011;36226;53.464;9.852;2023-11-19T03:57:21;8.13;;;4.63;;
50319;SDS011;36226;53.464;9.852;2023-11-19T03:59:47;8.52;;;4.68;;
50319;SDS011;36226;53.464;9.852;2023-11-19T04:02:12;10.68;;;5.72;;
50319;SDS011;36226;53.464;9.852;2023-11-19T04:04:37;9.35;;;5.40;;
50319;SDS011;36226;53.464;9.852;2023-11-19T04:07:04;10.57;;;5.82;;
50319;SDS011;36226;53.464;9.852;2023-11-19T04:09:29;10.60;;;5.25;;
50319;SDS011;36226;53.464;9.852;2023-11-19T04:11:55;12.52;;;6.68;;
50319;SDS011;36226;53.464;9.852;2023-11-19T04:14:21;13.32;;;5.90;;
50319;SDS011;36226;53.464;9.852;2023-11-19T04:16:47;16.05;;;7.38;;
50319;SDS011;36226;53.464;9.852;2023-11-19T04:19:12;12.85;;;7.25;;
50319;SDS011;36226;53.464;9.852;2023-11-19T04:21:40;13.82;;;7.43;;
50319;SDS011;36226;53.464;9.852;2023-11-19T04:24:07;16.83;;;8.32;;
50319;SDS011;36226;53.464;9.852;2023-11-19T04:26:42;14.60;;;8.02;;
50319;SDS011;36226;53.464;9.852;2023-11-19T04:29:10;16.33;;;8.32;;
50319;SDS011;36226;53.464;9.852;2023-11-19T04:31:36;16.95;;;8.80;;
50319;SDS011;36226;53.464;9.852;2023-11-19T04:34:02;17.33;;;8.90;;
50319;SDS011;36226;53.464;9.852;2023-11-19T04:36:27;17.65;;;9.55;;
50319;SDS011;36226;53.464;9.852;2023-11-19T04:38:54;21.35;;;10.30;;
50319;SDS011;36226;53.464;9.852;2023-11-19T04:41:20;20.23;;;10.18;;
50319;SDS011;36226;53.464;9.852;2023-11-19T04:43:45;25.13;;;10.88;;
50319;SDS011;36226;53.464;9.852;2023-11-19T04:46:10;31.20;;;11.80;;
50319;SDS011;36226;53.464;9.852;2023-11-19T04:48:36;25.58;;;11.15;;
50319;SDS011;36226;53.464;9.852;2023-11-19T04:51:01;24.80;;;11.98;;
50319;SDS011;36226;53.464;9.852;2023-11-19T04:53:29;24.90;;;11.15;;
50319;SDS011;36226;53.464;9.852;2023-11-19T04:55:55;21.42;;;11.48;;
50319;SDS011;36226;53.464;9.852;2023-11-19T04:58:20;23.58;;;11.05;;
50319;SDS011;36226;53.464;9.852;2023-11-19T05:00:45;27.27;;;12.50;;
50319;SDS011;36226;53.464;9.852;2023-11-19T05:03:11;24.08;;;12.38;;
50319;SDS011;36226;53.464;9.852;2023-11-19T05:05:36;24.80;;;11.50;;
50319;SDS011;36226;53.464;9.852;2023-11-19T05:08:01;27.00;;;11.90;;
50319;SDS011;36226;53.464;9.852;2023-11-19T05:10:27;26.50;;;11.30;;
50319;SDS011;36226;53.464;9.852;2023-11-19T05:12:52;27.20;;;12.73;;
50319;SDS011;36226;53.464;9.852;2023-11-19T05:15:18;28.90;;;12.57;;
50319;SDS011;36226;53.464;9.852;2023-11-19T05:17:43;26.15;;;12.63;;
50319;SDS011;36226;53.464;9.852;2023-11-19T05:20:08;32.42;;;13.65;;
50319;SDS011;36226;53.464;9.852;2023-11-19T05:22:39;35.35;;;11.93;;
50319;SDS011;36226;53.464;9.852;2023-11-19T05:25:07;28.27;;;12.23;;
50319;SDS011;36226;53.464;9.852;2023-11-19T05:27:34;29.60;;;13.20;;
50319;SDS011;36226;53.464;9.852;2023-11-19T05:30:00;30.23;;;11.90;;
50319;SDS011;36226;53.464;9.852;2023-11-19T05:32:26;36.13;;;13.25;;
50319;SDS011;36226;53.464;9.852;2023-11-19T05:34:51;28.65;;;12.10;;
50319;SDS011;36226;53.464;9.852;2023-11-19T05:37:16;27.95;;;12.52;;
50319;SDS011;36226;53.464;9.852;2023-11-19T05:39:42;34.15;;;13.13;;
50319;SDS011;36226;53.464;9.852;2023-11-19T05:42:07;29.50;;;11.38;;
50319;SDS011;36226;53.464;9.852;2023-11-19T05:44:33;29.77;;;12.73;;
50319;SDS011;36226;53.464;9.852;2023-11-19T05:46:58;26.83;;;11.55;;
50319;SDS011;36226;53.464;9.852;2023-11-19T05:49:23;31.42;;;11.75;;
50319;SDS011;36226;53.464;9.852;2023-11-19T05:51:49;24.75;;;11.32;;
50319;SDS011;36226;53.464;9.852;2023-11-19T05:54:14;24.70;;;11.15;;
50319;SDS011;36226;53.464;9.852;2023-11-19T05:56:39;31.13;;;12.18;;
50319;SDS011;36226;53.464;9.852;2023-11-19T05:59:05;35.80;;;11.40;;
50319;SDS011;36226;53.464;9.852;2023-11-19T06:01:39;35.80;;;11.67;;
50319;SDS011;36226;53.464;9.852;2023-11-19T06:04:06;30.42;;;11.43;;
50319;SDS011;36226;53.464;9.852;2023-11-19T06:06:32;35.17;;;10.85;;
50319;SDS011;36226;53.464;9.852;2023-11-19T06:08:57;31.90;;;11.45;;
50319;SDS011;36226;53.464;9.852;2023-11-19T06:11:22;32.05;;;10.38;;
50319;SDS011;36226;53.464;9.852;2023-11-19T06:13:48;37.05;;;11.65;;
50319;SDS011;36226;53.464;9.852;2023-11-19T06:16:15;24.48;;;10.93;;
50319;SDS011;36226;53.464;9.852;2023-11-19T06:18:41;28.10;;;10.18;;
50319;SDS011;36226;53.464;9.852;2023-11-19T06:21:06;32.13;;;10.82;;
50319;SDS011;36226;53.464;9.852;2023-11-19T06:23:32;29.17;;;10.02;;
50319;SDS011;36226;53.464;9.852;2023-11-19T06:25:57;33.50;;;10.43;;
50319;SDS011;36226;53.464;9.852;2023-11-19T06:28:22;28.27;;;9.60;;
50319;SDS011;36226;53.464;9.852;2023-11-19T06:30:48;28.95;;;10.05;;
50319;SDS011;36226;53.464;9.852;2023-11-19T06:33:13;30.52;;;10.13;;
50319;SDS011;36226;53.464;9.852;2023-11-19T06:35:39;30.95;;;10.60;;
50319;SDS011;36226;53.464;9.852;2023-11-19T06:38:04;28.00;;;9.38;;
50319;SDS011;36226;53.464;9.852;2023-11-19T06:40:32;34.83;;;9.82;;
50319;SDS011;36226;53.464;9.852;2023-11-19T06:43:00;21.95;;;9.07;;
50319;SDS011;36226;53.464;9.852;2023-11-19T06:45:25;23.70;;;8.02;;
50319;SDS011;36226;53.464;9.852;2023-11-19T06:47:50;28.13;;;8.63;;
50319;SDS011;36226;53.464;9.852;2023-11-19T06:50:16;31.15;;;8.63;;
50319;SDS011;36226;53.464;9.852;2023-11-19T06:52:41;28.77;;;8.20;;
50319;SDS011;36226;53.464;9.852;2023-11-19T06:55:07;30.38;;;9.43;;
50319;SDS011;36226;53.464;9.852;2023-11-19T06:57:32;30.70;;;8.65;;
50319;SDS011;36226;53.464;9.852;2023-11-19T06:59:58;31.88;;;9.52;;
50319;SDS011;36226;53.464;9.852;2023-11-19T07:02:24;25.92;;;9.48;;
50319;SDS011;36226;53.464;9.852;2023-11-19T07:04:49;32.83;;;8.38;;
50319;SDS011;36226;53.464;9.852;2023-11-19T07:07:15;29.08;;;8.00;;
50319;SDS011;36226;53.464;9.852;2023-11-19T07:09:41;24.63;;;7.15;;
50319;SDS011;36226;53.464;9.852;2023-11-19T07:12:06;22.40;;;6.47;;
50319;SDS011;36226;53.464;9.852;2023-11-19T07:14:31;21.40;;;6.65;;
50319;SDS011;36226;53.464;9.852;2023-11-19T07:16:57;16.42;;;6.78;;
50319;SDS011;36226;53.464;9.852;2023-11-19T07:19:22;32.83;;;7.50;;
50319;SDS011;36226;53.464;9.852;2023-11-19T07:21:47;31.10;;;8.25;;
50319;SDS011;36226;53.464;9.852;2023-11-19T07:24:13;27.27;;;7.80;;
50319;SDS011;36226;53.464;9.852;2023-11-19T07:26:45;26.42;;;7.78;;
50319;SDS011;36226;53.464;9.852;2023-11-19T07:29:12;26.15;;;8.50;;
50319;SDS011;36226;53.464;9.852;2023-11-19T07:31:38;24.20;;;7.05;;
50319;SDS011;36226;53.464;9.852;2023-11-19T07:34:03;28.55;;;7.45;;
50319;SDS011;36226;53.464;9.852;2023-11-19T07:36:30;27.02;;;7.13;;
50319;SDS011;36226;53.464;9.852;2023-11-19T07:38:55;26.35;;;6.30;;
50319;SDS011;36226;53.464;9.852;2023-11-19T07:41:22;25.42;;;6.22;;
50319;SDS011;36226;53.464;9.852;2023-11-19T07:43:48;31.85;;;5.93;;
50319;SDS011;36226;53.464;9.852;2023-11-19T07:46:14;23.25;;;4.93;;
50319;SDS011;36226;53.464;9.852;2023-11-19T07:48:40;22.48;;;5.13;;
50319;SDS011;36226;53.464;9.852;2023-11-19T07:51:05;34.72;;;5.82;;
50319;SDS011;36226;53.464;9.852;2023-11-19T07:53:31;29.27;;;5.13;;
50319;SDS011;36226;53.464;9.852;2023-11-19T07:55:57;25.08;;;5.10;;
50319;SDS011;36226;53.464;9.852;2023-11-19T07:58:24;30.77;;;5.25;;
50319;SDS011;36226;53.464;9.852;2023-11-19T08:00:50;28.02;;;5.03;;
50319;SDS011;36226;53.464;9.852;2023-11-19T08:03:15;28.27;;;4.82;;
50319;SDS011;36226;53.464;9.852;2023-11-19T08:05:41;29.75;;;3.97;;
50319;SDS011;36226;53.464;9.852;2023-11-19T08:08:06;29.73;;;4.45;;
50319;SDS011;36226;53.464;9.852;2023-11-19T08:10:32;25.10;;;4.00;;
50319;SDS011;36226;53.464;9.852;2023-11-19T08:12:58;33.47;;;4.30;;
50319;SDS011;36226;53.464;9.852;2023-11-19T08:15:23;20.55;;;3.85;;
50319;SDS011;36226;53.464;9.852;2023-11-19T08:17:49;27.23;;;4.68;;
50319;SDS011;36226;53.464;9.852;2023-11-19T08:20:14;19.90;;;3.92;;
50319;SDS011;36226;53.464;9.852;2023-11-19T08:22:39;29.20;;;4.13;;
50319;SDS011;36226;53.464;9.852;2023-11-19T08:25:05;27.25;;;3.65;;
50319;SDS011;36226;53.464;9.852;2023-11-19T08:27:31;31.98;;;3.35;;
50319;SDS011;36226;53.464;9.852;2023-11-19T08:29:56;25.52;;;4.47;;
50319;SDS011;36226;53.464;9.852;2023-11-19T08:32:25;30.52;;;3.85;;
50319;SDS011;36226;53.464;9.852;2023-11-19T08:34:51;24.77;;;4.05;;
50319;SDS011;36226;53.464;9.852;2023-11-19T08:37:16;23.27;;;3.65;;
50319;SDS011;36226;53.464;9.852;2023-11-19T08:39:45;18.10;;;3.10;;
50319;SDS011;36226;53.464;9.852;2023-11-19T08:42:11;26.73;;;3.60;;
50319;SDS011;36226;53.464;9.852;2023-11-19T08:44:37;19.02;;;3.75;;
50319;SDS011;36226;53.464;9.852;2023-11-19T08:47:02;20.65;;;3.30;;
50319;SDS011;36226;53.464;9.852;2023-11-19T08:49:28;36.70;;;4.53;;
50319;SDS011;36226;53.464;9.852;2023-11-19T08:51:53;22.45;;;4.10;;
50319;SDS011;36226;53.464;9.852;2023-11-19T08:54:19;25.95;;;3.47;;
50319;SDS011;36226;53.464;9.852;2023-11-19T08:56:46;28.27;;;4.25;;
50319;SDS011;36226;53.464;9.852;2023-11-19T08:59:11;31.63;;;5.22;;
50319;SDS011;36226;53.464;9.852;2023-11-19T09:01:37;30.00;;;4.65;;
50319;SDS011;36226;53.464;9.852;2023-11-19T09:04:02;23.50;;;6.53;;
50319;SDS011;36226;53.464;9.852;2023-11-19T09:06:28;36.67;;;7.32;;
50319;SDS011;36226;53.464;9.852;2023-11-19T09:08:53;35.20;;;8.27;;
50319;SDS011;36226;53.464;9.852;2023-11-19T09:11:23;30.02;;;4.25;;
50319;SDS011;36226;53.464;9.852;2023-11-19T09:13:49;30.92;;;4.40;;
50319;SDS011;36226;53.464;9.852;2023-11-19T09:16:14;30.80;;;7.78;;
50319;SDS011;36226;53.464;9.852;2023-11-19T09:18:40;26.67;;;4.32;;
50319;SDS011;36226;53.464;9.852;2023-11-19T09:21:06;28.88;;;4.45;;
50319;SDS011;36226;53.464;9.852;2023-11-19T09:23:32;25.40;;;4.00;;
50319;SDS011;36226;53.464;9.852;2023-11-19T09:26:01;30.85;;;4.90;;
50319;SDS011;36226;53.464;9.852;2023-11-19T09:28:26;36.03;;;6.82;;
50319;SDS011;36226;53.464;9.852;2023-11-19T09:30:52;37.95;;;6.43;;
50319;SDS011;36226;53.464;9.852;2023-11-19T09:33:17;31.60;;;5.65;;
50319;SDS011;36226;53.464;9.852;2023-11-19T09:35:42;32.80;;;5.75;;
50319;SDS011;36226;53.464;9.852;2023-11-19T09:38:08;34.90;;;5.15;;
50319;SDS011;36226;53.464;9.852;2023-11-19T09:40:33;32.28;;;6.07;;
50319;SDS011;36226;53.464;9.852;2023-11-19T09:42:58;34.97;;;5.43;;
50319;SDS011;36226;53.464;9.852;2023-11-19T09:45:25;25.80;;;5.68;;
50319;SDS011;36226;53.464;9.852;2023-11-19T09:47:52;23.98;;;4.32;;
50319;SDS011;36226;53.464;9.852;2023-11-19T09:50:18;42.85;;;6.10;;
50319;SDS011;36226;53.464;9.852;2023-11-19T09:52:44;34.88;;;6.50;;
50319;SDS011;36226;53.464;9.852;2023-11-19T09:55:10;28.05;;;4.60;;
50319;SDS011;36226;53.464;9.852;2023-11-19T09:57:35;30.23;;;5.55;;
50319;SDS011;36226;53.464;9.852;2023-11-19T10:00:03;26.63;;;4.78;;
50319;SDS011;36226;53.464;9.852;2023-11-19T10:02:33;27.20;;;4.82;;
50319;SDS011;36226;53.464;9.852;2023-11-19T10:05:11;31.13;;;3.97;;
50319;SDS011;36226;53.464;9.852;2023-11-19T10:07:37;29.88;;;4.93;;
50319;SDS011;36226;53.464;9.852;2023-11-19T10:10:03;26.15;;;5.28;;
50319;SDS011;36226;53.464;9.852;2023-11-19T10:12:29;29.60;;;4.70;;
50319;SDS011;36226;53.464;9.852;2023-11-19T10:14:58;29.35;;;4.60;;
50319;SDS011;36226;53.464;9.852;2023-11-19T10:17:27;21.60;;;3.63;;
50319;SDS011;36226;53.464;9.852;2023-11-19T10:19:54;28.70;;;4.35;;
50319;SDS011;36226;53.464;9.852;2023-11-19T10:22:20;31.33;;;4.03;;
50319;SDS011;36226;53.464;9.852;2023-11-19T10:24:48;31.13;;;4.32;;
50319;SDS011;36226;53.464;9.852;2023-11-19T10:27:13;24.90;;;4.03;;
50319;SDS011;36226;53.464;9.852;2023-11-19T10:29:39;31.38;;;4.78;;
50319;SDS011;36226;53.464;9.852;2023-11-19T10:32:05;29.45;;;4.75;;
50319;SDS011;36226;53.464;9.852;2023-11-19T10:34:30;34.90;;;5.63;;
50319;SDS011;36226;53.464;9.852;2023-11-19T10:36:56;27.27;;;5.00;;
50319;SDS011;36226;53.464;9.852;2023-11-19T10:39:22;32.00;;;3.95;;
50319;SDS011;36226;53.464;9.852;2023-11-19T10:41:48;29.10;;;4.47;;
50319;SDS011;36226;53.464;9.852;2023-11-19T10:44:30;23.55;;;4.93;;
50319;SDS011;36226;53.464;9.852;2023-11-19T10:46:58;28.60;;;4.28;;
50319;SDS011;36226;53.464;9.852;2023-11-19T10:49:24;27.67;;;4.63;;
50319;SDS011;36226;53.464;9.852;2023-11-19T10:51:49;29.30;;;5.13;;
50319;SDS011;36226;53.464;9.852;2023-11-19T10:54:17;27.48;;;4.45;;
50319;SDS011;36226;53.464;9.852;2023-11-19T10:56:43;25.08;;;4.50;;
50319;SDS011;36226;53.464;9.852;2023-11-19T10:59:09;31.63;;;5.05;;
50319;SDS011;36226;53.464;9.852;2023-11-19T11:01:45;30.35;;;4.40;;
50319;SDS011;36226;53.464;9.852;2023-11-19T11:04:23;31.88;;;4.47;;
50319;SDS011;36226;53.464;9.852;2023-11-19T11:06:50;29.40;;;3.63;;
50319;SDS011;36226;53.464;9.852;2023-11-19T11:09:16;39.08;;;4.85;;
50319;SDS011;36226;53.464;9.852;2023-11-19T11:11:41;22.25;;;3.35;;
50319;SDS011;36226;53.464;9.852;2023-11-19T11:14:13;31.38;;;4.20;;
50319;SDS011;36226;53.464;9.852;2023-11-19T11:16:42;34.22;;;4.75;;
50319;SDS011;36226;53.464;9.852;2023-11-19T11:19:09;35.42;;;4.10;;
50319;SDS011;36226;53.464;9.852;2023-11-19T11:21:35;24.17;;;3.83;;
50319;SDS011;36226;53.464;9.852;2023-11-19T11:24:07;26.33;;;3.40;;
50319;SDS011;36226;53.464;9.852;2023-11-19T11:29:47;30.10;;;3.85;;
50319;SDS011;36226;53.464;9.852;2023-11-19T11:37:39;26.55;;;3.35;;
50319;SDS011;36226;53.464;9.852;2023-11-19T11:40:15;30.38;;;5.22;;
50319;SDS011;36226;53.464;9.852;2023-11-19T11:42:43;33.33;;;4.32;;
50319;SDS011;36226;53.464;9.852;2023-11-19T11:45:12;27.50;;;3.47;;
50319;SDS011;36226;53.464;9.852;2023-11-19T11:50:15;31.73;;;4.45;;
50319;SDS011;36226;53.464;9.852;2023-11-19T11:58:02;25.17;;;3.13;;
50319;SDS011;36226;53.464;9.852;2023-11-19T12:02:55;26.95;;;3.28;;
50319;SDS011;36226;53.464;9.852;2023-11-19T12:05:21;22.23;;;3.05;;
50319;SDS011;36226;53.464;9.852;2023-11-19T12:07:59;30.00;;;4.00;;
50319;SDS011;36226;53.464;9.852;2023-11-19T12:10:28;31.13;;;3.75;;
50319;SDS011;36226;53.464;9.852;2023-11-19T12:12:59;18.33;;;3.65;;
50319;SDS011;36226;53.464;9.852;2023-11-19T12:15:25;22.52;;;3.40;;
50319;SDS011;36226;53.464;9.852;2023-11-19T12:17:52;34.97;;;4.15;;
50319;SDS011;36226;53.464;9.852;2023-11-19T12:20:22;24.38;;;3.60;;
50319;SDS011;36226;53.464;9.852;2023-11-19T12:22:51;24.17;;;3.58;;
50319;SDS011;36226;53.464;9.852;2023-11-19T12:25:21;21.00;;;3.38;;
50319;SDS011;36226;53.464;9.852;2023-11-19T12:27:50;22.42;;;4.28;;
50319;SDS011;36226;53.464;9.852;2023-11-19T12:30:16;23.80;;;3.80;;
50319;SDS011;36226;53.464;9.852;2023-11-19T12:32:45;30.92;;;4.72;;
50319;SDS011;36226;53.464;9.852;2023-11-19T12:35:11;24.05;;;3.80;;
50319;SDS011;36226;53.464;9.852;2023-11-19T12:37:41;23.25;;;3.65;;
50319;SDS011;36226;53.464;9.852;2023-11-19T12:40:17;23.63;;;3.88;;
50319;SDS011;36226;53.464;9.852;2023-11-19T12:42:49;20.85;;;3.35;;
50319;SDS011;36226;53.464;9.852;2023-11-19T12:45:16;25.13;;;4.70;;
50319;SDS011;36226;53.464;9.852;2023-11-19T12:47:42;20.65;;;3.38;;
50319;SDS011;36226;53.464;9.852;2023-11-19T12:50:08;22.42;;;4.07;;
50319;SDS011;36226;53.464;9.852;2023-11-19T12:52:35;24.98;;;4.55;;
50319;SDS011;36226;53.464;9.852;2023-11-19T12:55:01;26.70;;;3.60;;
50319;SDS011;36226;53.464;9.852;2023-11-19T12:57:39;24.35;;;4.25;;
50319;SDS011;36226;53.464;9.852;2023-11-19T13:00:06;28.05;;;3.72;;
50319;SDS011;36226;53.464;9.852;2023-11-19T13:02:44;21.05;;;3.03;;
50319;SDS011;36226;53.464;9.852;2023-11-19T13:05:30;24.52;;;3.05;;
50319;SDS011;36226;53.464;9.852;2023-11-19T13:08:07;25.20;;;3.72;;
50319;SDS011;36226;53.464;9.852;2023-11-19T13:10:49;24.00;;;3.70;;
50319;SDS011;36226;53.464;9.852;2023-11-19T13:13:16;19.80;;;2.72;;
50319;SDS011;36226;53.464;9.852;2023-11-19T13:15:41;27.30;;;3.83;;
50319;SDS011;36226;53.464;9.852;2023-11-19T13:18:08;21.63;;;3.38;;
50319;SDS011;36226;53.464;9.852;2023-11-19T13:20:33;24.42;;;3.33;;
50319;SDS011;36226;53.464;9.852;2023-11-19T13:22:59;23.08;;;3.67;;
50319;SDS011;36226;53.464;9.852;2023-11-19T13:25:26;27.05;;;3.58;;
50319;SDS011;36226;53.464;9.852;2023-11-19T13:27:52;19.63;;;3.80;;
50319;SDS011;36226;53.464;9.852;2023-11-19T13:30:18;24.95;;;4.40;;
50319;SDS011;36226;53.464;9.852;2023-11-19T13:32:44;24.83;;;4.22;;
50319;SDS011;36226;53.464;9.852;2023-11-19T13:35:12;27.70;;;3.70;;
50319;SDS011;36226;53.464;9.852;2023-11-19T13:37:38;20.90;;;3.05;;
50319;SDS011;36226;53.464;9.852;2023-11-19T13:40:04;31.00;;;3.97;;
50319;SDS011;36226;53.464;9.852;2023-11-19T13:42:30;24.20;;;3.45;;
50319;SDS011;36226;53.464;9.852;2023-11-19T13:44:55;27.00;;;3.00;;
50319;SDS011;36226;53.464;9.852;2023-11-19T13:47:21;28.48;;;4.10;;
50319;SDS011;36226;53.464;9.852;2023-11-19T13:49:46;26.25;;;3.83;;
50319;SDS011;36226;53.464;9.852;2023-11-19T13:52:12;19.92;;;2.72;;
50319;SDS011;36226;53.464;9.852;2023-11-19T13:54:37;18.50;;;2.78;;
50319;SDS011;36226;53.464;9.852;2023-11-19T13:57:03;23.52;;;3.63;;
50319;SDS011;36226;53.464;9.852;2023-11-19T13:59:29;20.23;;;3.80;;
50319;SDS011;36226;53.464;9.852;2023-11-19T14:01:57;29.15;;;4.70;;
50319;SDS011;36226;53.464;9.852;2023-11-19T14:04:22;43.08;;;10.32;;
50319;SDS011;36226;53.464;9.852;2023-11-19T14:06:48;20.08;;;4.07;;
50319;SDS011;36226;53.464;9.852;2023-11-19T14:09:13;18.77;;;3.10;;
50319;SDS011;36226;53.464;9.852;2023-11-19T14:11:38;18.52;;;3.40;;
50319;SDS011;36226;53.464;9.852;2023-11-19T14:14:04;32.60;;;4.85;;
50319;SDS011;36226;53.464;9.852;2023-11-19T14:16:29;26.40;;;4.38;;
50319;SDS011;36226;53.464;9.852;2023-11-19T14:18:54;20.05;;;3.53;;
50319;SDS011;36226;53.464;9.852;2023-11-19T14:21:20;20.23;;;3.42;;
50319;SDS011;36226;53.464;9.852;2023-11-19T14:23:46;25.48;;;3.22;;
50319;SDS011;36226;53.464;9.852;2023-11-19T14:26:11;20.98;;;2.80;;
50319;SDS011;36226;53.464;9.852;2023-11-19T14:28:37;19.52;;;2.97;;
50319;SDS011;36226;53.464;9.852;2023-11-19T14:31:03;14.25;;;2.65;;
50319;SDS011;36226;53.464;9.852;2023-11-19T14:33:29;20.60;;;2.97;;
50319;SDS011;36226;53.464;9.852;2023-11-19T14:35:54;21.70;;;2.92;;
50319;SDS011;36226;53.464;9.852;2023-11-19T14:38:19;20.80;;;3.88;;
50319;SDS011;36226;53.464;9.852;2023-11-19T14:40:45;14.52;;;3.10;;
50319;SDS011;36226;53.464;9.852;2023-11-19T14:43:10;19.38;;;3.25;;
50319;SDS011;36226;53.464;9.852;2023-11-19T14:45:36;21.60;;;3.20;;
50319;SDS011;36226;53.464;9.852;2023-11-19T14:48:01;19.55;;;2.72;;
50319;SDS011;36226;53.464;9.852;2023-11-19T14:50:26;20.73;;;3.22;;